createdAt,value
2022-11-23T00:01:31.406Z,34.06
2022-11-23T00:03:59.315Z,34.36
2022-11-23T00:06:27.123Z,34.00
2022-11-23T00:08:54.958Z,34.54
2022-11-23T00:11:22.730Z,34.04
2022-11-23T00:13:50.855Z,34.27
2022-11-23T00:16:18.632Z,34.43
2022-11-23T00:18:46.524Z,34.45
2022-11-23T00:21:14.301Z,34.38
2022-11-23T00:23:42.071Z,34.22
2022-11-23T00:26:10.064Z,34.28
2022-11-23T00:28:40.026Z,34.13
2022-11-23T00:31:08.278Z,34.11
2022-11-23T00:33:36.116Z,34.53
2022-11-23T00:36:03.910Z,34.70
2022-11-23T00:38:31.684Z,34.45
2022-11-23T00:40:59.477Z,34.66
2022-11-23T00:43:27.246Z,34.49
2022-11-23T00:45:55.018Z,34.19
2022-11-23T00:48:22.831Z,34.46
2022-11-23T00:50:50.750Z,34.61
2022-11-23T00:53:18.510Z,34.58
2022-11-23T00:55:46.450Z,34.55
2022-11-23T00:58:14.214Z,35.19
2022-11-23T01:00:42.010Z,35.10
2022-11-23T01:03:09.738Z,34.74
2022-11-23T01:05:37.804Z,34.90
2022-11-23T01:08:05.666Z,34.73
2022-11-23T01:10:33.636Z,35.01
2022-11-23T01:13:01.391Z,34.63
2022-11-23T01:15:29.315Z,34.63
2022-11-23T01:17:57.083Z,34.88
2022-11-23T01:20:24.921Z,34.85
2022-11-23T01:22:52.653Z,34.58
2022-11-23T01:25:20.652Z,34.59
2022-11-23T01:27:48.535Z,34.76
2022-11-23T01:30:16.924Z,34.76
2022-11-23T01:32:44.726Z,34.68
2022-11-23T01:35:12.523Z,35.01
2022-11-23T01:37:40.304Z,34.88
2022-11-23T01:40:08.123Z,34.53
2022-11-23T01:42:36.242Z,34.73
2022-11-23T01:45:04.051Z,34.83
2022-11-23T01:47:32.028Z,35.03
2022-11-23T01:49:59.834Z,34.61
2022-11-23T01:52:27.557Z,34.36
2022-11-23T01:54:55.380Z,34.71
2022-11-23T01:57:23.209Z,34.56
2022-11-23T01:59:51.006Z,34.72
2022-11-23T02:02:18.883Z,34.88
2022-11-23T02:04:46.695Z,34.64
2022-11-23T02:07:14.546Z,34.78
2022-11-23T02:09:42.415Z,35.19
2022-11-23T02:12:10.227Z,34.86
2022-11-23T02:14:37.960Z,34.87
2022-11-23T02:17:05.729Z,34.53
2022-11-23T02:19:33.808Z,34.78
2022-11-23T02:22:01.997Z,34.62
2022-11-23T02:24:29.723Z,34.91
2022-11-23T02:26:57.542Z,34.62
2022-11-23T02:29:25.355Z,34.86
2022-11-23T02:31:53.248Z,34.85
2022-11-23T02:34:21.009Z,35.02
2022-11-23T02:36:49.008Z,35.13
2022-11-23T02:39:16.786Z,35.26
2022-11-23T02:41:44.533Z,35.17
2022-11-23T02:44:12.314Z,35.56
2022-11-23T02:46:40.198Z,35.49
2022-11-23T02:49:08.038Z,35.43
2022-11-23T02:51:35.871Z,35.15
2022-11-23T02:54:03.668Z,35.34
2022-11-23T02:56:31.595Z,35.57
2022-11-23T02:58:59.368Z,35.55
2022-11-23T03:01:27.154Z,35.43
2022-11-23T03:03:55.245Z,35.53
2022-11-23T03:06:23.011Z,35.63
2022-11-23T03:08:50.969Z,35.21
2022-11-23T03:11:18.957Z,35.35
2022-11-23T03:13:46.743Z,35.46
2022-11-23T03:16:14.504Z,35.22
2022-11-23T03:18:42.561Z,35.15
2022-11-23T03:21:10.420Z,35.32
2022-11-23T03:23:38.181Z,35.21
2022-11-23T03:26:11.322Z,35.32
2022-11-23T03:28:42.417Z,35.39
2022-11-23T03:31:10.255Z,35.55
2022-11-23T03:33:38.633Z,35.29
2022-11-23T03:36:06.679Z,35.44
2022-11-23T03:38:34.483Z,35.22
2022-11-23T03:41:02.489Z,35.25
2022-11-23T03:43:30.272Z,35.55
2022-11-23T03:45:58.004Z,35.48
2022-11-23T03:48:25.806Z,35.38
2022-11-23T03:50:53.648Z,35.20
2022-11-23T03:53:21.463Z,35.27
2022-11-23T03:55:49.491Z,35.15
2022-11-23T03:58:17.232Z,35.11
2022-11-23T04:00:45.045Z,35.20
2022-11-23T04:03:12.848Z,35.65
2022-11-23T04:05:40.637Z,35.08
2022-11-23T04:08:08.378Z,35.22
2022-11-23T04:10:36.129Z,35.04
2022-11-23T04:13:03.923Z,35.23
2022-11-23T04:15:31.742Z,35.42
2022-11-23T04:17:59.564Z,35.45
2022-11-23T04:20:27.827Z,35.33
2022-11-23T04:22:55.603Z,35.56
2022-11-23T04:25:23.548Z,35.40
2022-11-23T04:27:51.294Z,35.55
2022-11-23T04:30:19.684Z,35.68
2022-11-23T04:32:47.471Z,35.89
2022-11-23T04:35:15.270Z,35.94
2022-11-23T04:37:43.035Z,35.62
2022-11-23T04:40:10.825Z,36.07
2022-11-23T04:42:38.711Z,36.20
2022-11-23T04:45:06.498Z,35.51
2022-11-23T04:47:34.317Z,35.74
2022-11-23T04:50:02.087Z,35.93
2022-11-23T04:52:29.861Z,35.78
2022-11-23T04:54:57.686Z,35.91
2022-11-23T04:57:25.480Z,35.78
2022-11-23T04:59:53.279Z,35.89
2022-11-23T05:02:21.102Z,35.72
2022-11-23T05:04:48.890Z,35.67
2022-11-23T05:07:16.881Z,35.60
2022-11-23T05:09:44.928Z,35.51
2022-11-23T05:12:12.759Z,35.52
2022-11-23T05:14:40.509Z,35.14
2022-11-23T05:17:08.340Z,35.55
2022-11-23T05:19:36.160Z,35.45
2022-11-23T05:22:03.926Z,35.84
2022-11-23T05:24:31.762Z,35.77
2022-11-23T05:26:59.532Z,35.87
2022-11-23T05:29:27.274Z,36.29
2022-11-23T05:31:55.029Z,36.19
2022-11-23T05:34:22.799Z,36.27
2022-11-23T05:36:50.572Z,36.77
2022-11-23T05:39:18.313Z,36.76
2022-11-23T05:41:46.090Z,36.28
2022-11-23T05:44:13.875Z,36.89
2022-11-23T05:46:41.763Z,36.95
2022-11-23T05:49:09.624Z,36.75
2022-11-23T05:51:37.444Z,37.23
2022-11-23T05:54:05.275Z,36.90
2022-11-23T05:56:37.265Z,37.21
2022-11-23T05:59:08.136Z,37.10
2022-11-23T06:01:35.926Z,36.83
2022-11-23T06:04:03.830Z,36.97
2022-11-23T06:06:31.716Z,37.47
2022-11-23T06:08:59.520Z,36.95
2022-11-23T06:11:27.264Z,37.13
2022-11-23T06:13:55.037Z,37.38
2022-11-23T06:16:22.791Z,37.26
2022-11-23T06:18:50.582Z,37.09
2022-11-23T06:21:18.432Z,37.48
2022-11-23T06:23:46.187Z,37.13
2022-11-23T06:26:13.948Z,37.36
2022-11-23T06:28:41.748Z,37.64
2022-11-23T06:31:09.524Z,37.75
2022-11-23T06:33:37.300Z,37.51
2022-11-23T06:36:05.059Z,37.63
2022-11-23T06:38:33.288Z,37.29
2022-11-23T06:41:01.052Z,37.41
2022-11-23T06:43:28.932Z,37.84
2022-11-23T06:45:56.748Z,37.29
2022-11-23T06:48:24.575Z,37.45
2022-11-23T06:50:52.333Z,37.77
2022-11-23T06:53:20.172Z,37.24
2022-11-23T06:55:47.972Z,37.30
2022-11-23T06:58:15.778Z,37.59
2022-11-23T07:00:43.543Z,37.27
2022-11-23T07:03:11.410Z,37.29
2022-11-23T07:05:39.221Z,37.14
2022-11-23T07:08:06.975Z,37.36
2022-11-23T07:10:35.248Z,37.21
2022-11-23T07:13:03.071Z,37.04
2022-11-23T07:15:30.833Z,37.33
2022-11-23T07:17:58.631Z,37.15
2022-11-23T07:20:26.452Z,37.25
2022-11-23T07:22:54.777Z,37.46
2022-11-23T07:25:22.602Z,37.03
2022-11-23T07:27:50.419Z,36.80
2022-11-23T07:30:18.231Z,37.34
2022-11-23T07:32:46.018Z,37.32
2022-11-23T07:35:13.837Z,37.38
2022-11-23T07:37:41.577Z,37.11
2022-11-23T07:40:09.330Z,37.14
2022-11-23T07:42:44.205Z,37.05
2022-11-23T07:45:12.614Z,37.05
2022-11-23T07:47:40.599Z,37.07
2022-11-23T07:50:08.396Z,37.04
2022-11-23T07:52:36.200Z,36.80
2022-11-23T07:55:03.967Z,36.94
2022-11-23T07:57:31.741Z,36.97
2022-11-23T07:59:59.522Z,36.71
2022-11-23T08:02:27.486Z,36.82
2022-11-23T08:04:55.492Z,36.69
2022-11-23T08:07:23.312Z,36.63
2022-11-23T08:09:51.622Z,36.76
2022-11-23T08:12:19.568Z,36.52
2022-11-23T08:14:47.383Z,36.59
2022-11-23T08:17:15.190Z,36.38
2022-11-23T08:19:43.095Z,36.55
2022-11-23T08:22:15.479Z,36.74
2022-11-23T08:24:43.652Z,36.41
2022-11-23T08:27:11.431Z,36.63
2022-11-23T08:29:39.236Z,36.64
2022-11-23T08:32:07.257Z,36.48
2022-11-23T08:34:35.224Z,36.36
2022-11-23T08:37:03.142Z,36.57
2022-11-23T08:39:30.979Z,36.79
2022-11-23T08:41:58.814Z,36.76
2022-11-23T08:44:26.565Z,36.50
2022-11-23T08:46:54.332Z,36.59
2022-11-23T08:49:22.084Z,36.53
2022-11-23T08:51:50.211Z,36.81
2022-11-23T08:54:18.249Z,36.65
2022-11-23T08:56:46.077Z,36.53
2022-11-23T08:59:13.914Z,36.45
2022-11-23T09:01:41.808Z,36.56
2022-11-23T09:04:09.658Z,36.64
2022-11-23T09:06:37.424Z,36.50
2022-11-23T09:09:05.199Z,36.53
2022-11-23T09:11:33.014Z,36.62
2022-11-23T09:14:00.828Z,36.71
2022-11-23T09:16:33.662Z,36.62
2022-11-23T09:19:02.442Z,36.76
2022-11-23T09:21:33.520Z,36.39
2022-11-23T09:24:01.330Z,37.17
2022-11-23T09:26:30.623Z,37.31
2022-11-23T09:28:58.411Z,37.17
2022-11-23T09:31:28.910Z,36.86
2022-11-23T09:33:56.717Z,36.68
2022-11-23T09:36:24.484Z,36.92
2022-11-23T09:38:56.594Z,36.66
2022-11-23T09:41:25.201Z,37.47
2022-11-23T09:43:52.987Z,36.56
2022-11-23T09:46:20.790Z,37.16
2022-11-23T09:48:48.752Z,36.82
2022-11-23T09:51:16.682Z,36.75
2022-11-23T09:53:44.444Z,36.68
2022-11-23T09:56:12.229Z,37.09
2022-11-23T09:58:40.034Z,36.64
2022-11-23T10:01:07.980Z,36.91
2022-11-23T10:03:35.990Z,36.81
2022-11-23T10:06:03.786Z,37.21
2022-11-23T10:08:31.571Z,36.55
2022-11-23T10:10:59.332Z,36.87
2022-11-23T10:13:27.097Z,37.06
2022-11-23T10:15:54.895Z,37.17
2022-11-23T10:18:22.662Z,36.73
2022-11-23T10:20:50.503Z,36.89
2022-11-23T10:23:18.354Z,36.63
2022-11-23T10:25:46.130Z,36.95
2022-11-23T10:28:14.039Z,36.72
2022-11-23T10:30:41.812Z,37.07
2022-11-23T10:33:09.765Z,36.95
2022-11-23T10:35:38.910Z,36.75
2022-11-23T10:38:06.721Z,37.02
2022-11-23T10:40:34.492Z,36.46
2022-11-23T10:43:03.030Z,36.79
2022-11-23T10:45:31.339Z,36.89
2022-11-23T10:47:59.602Z,36.81
2022-11-23T10:50:27.429Z,36.37
2022-11-23T10:52:55.222Z,36.97
2022-11-23T10:55:22.945Z,36.77
2022-11-23T10:57:50.835Z,36.63
2022-11-23T11:00:18.627Z,36.78
2022-11-23T11:02:46.371Z,36.81
2022-11-23T11:05:14.219Z,36.83
2022-11-23T11:07:42.075Z,36.81
2022-11-23T11:10:11.970Z,37.10
2022-11-23T11:12:39.740Z,37.09
2022-11-23T11:15:11.998Z,37.22
2022-11-23T11:17:41.725Z,37.06
2022-11-23T11:20:09.471Z,37.52
2022-11-23T11:22:37.267Z,37.13
2022-11-23T11:25:04.997Z,37.27
2022-11-23T11:27:32.983Z,37.47
2022-11-23T11:30:00.787Z,37.31
2022-11-23T11:32:28.585Z,37.55
2022-11-23T11:34:56.410Z,37.29
2022-11-23T11:37:24.192Z,37.29
2022-11-23T11:39:51.996Z,37.47
2022-11-23T11:42:19.962Z,37.38
2022-11-23T11:44:47.757Z,37.38
2022-11-23T11:47:15.580Z,37.19
2022-11-23T11:49:43.376Z,36.83
2022-11-23T11:52:11.266Z,37.32
2022-11-23T11:54:39.253Z,37.05
2022-11-23T11:57:07.035Z,37.17
2022-11-23T11:59:35.127Z,36.99
2022-11-23T12:02:03.118Z,37.19
2022-11-23T12:04:31.183Z,36.72
2022-11-23T12:06:59.357Z,36.95
2022-11-23T12:09:27.235Z,37.25
2022-11-23T12:11:54.986Z,37.19
2022-11-23T12:14:22.830Z,36.76
2022-11-23T12:19:38.369Z,36.76
2022-11-23T12:22:06.199Z,36.81
2022-11-23T12:24:34.066Z,36.91
2022-11-23T12:27:01.788Z,36.85
2022-11-23T12:29:31.587Z,36.62
2022-11-23T12:31:59.611Z,36.97
2022-11-23T12:34:27.417Z,36.34
2022-11-23T12:36:55.302Z,36.63
2022-11-23T12:39:23.077Z,36.99
2022-11-23T12:41:50.902Z,36.84
2022-11-23T12:44:18.939Z,36.66
2022-11-23T12:46:46.736Z,37.04
2022-11-23T12:49:14.568Z,36.86
2022-11-23T12:51:42.333Z,36.52
2022-11-23T12:54:10.127Z,36.87
2022-11-23T12:56:37.981Z,36.75
2022-11-23T12:59:05.798Z,36.83
2022-11-23T13:01:34.451Z,37.25
2022-11-23T13:04:02.406Z,36.88
2022-11-23T13:06:30.255Z,37.02
2022-11-23T13:08:58.104Z,37.31
2022-11-23T13:11:25.850Z,37.17
2022-11-23T13:13:55.617Z,37.33
2022-11-23T13:16:23.569Z,37.13
2022-11-23T13:18:53.492Z,36.96
2022-11-23T13:21:21.196Z,37.16
2022-11-23T13:23:49.046Z,37.46
2022-11-23T13:26:16.878Z,37.41
2022-11-23T13:28:44.706Z,37.25
2022-11-23T13:31:15.330Z,37.22
2022-11-23T13:33:43.541Z,37.56
2022-11-23T13:36:18.308Z,37.07
2022-11-23T13:38:47.607Z,36.97
2022-11-23T13:41:15.834Z,37.26
2022-11-23T13:43:43.596Z,37.22
2022-11-23T13:46:11.475Z,37.13
2022-11-23T13:48:56.248Z,36.92
2022-11-23T13:51:25.207Z,37.01
2022-11-23T13:53:52.997Z,37.00
2022-11-23T13:56:20.792Z,37.27
2022-11-23T13:58:48.569Z,36.80
2022-11-23T14:01:16.339Z,36.89
2022-11-23T14:03:46.083Z,36.72
2022-11-23T14:06:13.842Z,37.00
2022-11-23T14:08:41.652Z,36.72
2022-11-23T14:11:09.427Z,37.14
2022-11-23T14:13:37.263Z,36.82
2022-11-23T14:16:05.096Z,36.93
2022-11-23T14:18:32.983Z,37.00
2022-11-23T14:21:01.801Z,36.78
2022-11-23T14:23:29.633Z,37.26
2022-11-23T14:25:57.406Z,36.66
2022-11-23T14:28:25.181Z,37.00
2022-11-23T14:30:52.993Z,36.84
2022-11-23T14:33:20.755Z,36.80
2022-11-23T14:35:48.544Z,36.85
2022-11-23T14:38:16.360Z,36.99
2022-11-23T14:40:44.129Z,36.60
2022-11-23T14:43:13.394Z,36.62
2022-11-23T14:45:41.365Z,36.67
2022-11-23T14:48:09.209Z,36.88
2022-11-23T14:50:36.959Z,36.77
2022-11-23T14:53:04.747Z,36.75
2022-11-23T14:55:32.864Z,31.83
2022-11-23T14:58:00.886Z,22.64
2022-11-23T15:00:28.686Z,18.15
2022-11-23T15:02:56.534Z,15.69
2022-11-23T15:05:24.355Z,14.50
2022-11-23T15:07:52.223Z,13.47
2022-11-23T15:10:20.056Z,12.08
2022-11-23T15:12:47.893Z,12.11
2022-11-23T15:15:15.639Z,11.30
2022-11-23T15:17:43.469Z,10.81
2022-11-23T15:20:11.933Z,10.77
2022-11-23T15:22:39.843Z,10.40
2022-11-23T15:25:08.146Z,10.47
2022-11-23T15:27:35.927Z,10.22
2022-11-23T15:30:03.682Z,10.26
2022-11-23T15:32:33.852Z,10.02
2022-11-23T15:35:02.427Z,10.56
2022-11-23T15:37:30.227Z,11.08
2022-11-23T15:39:57.998Z,11.50
2022-11-23T15:42:25.858Z,12.39
2022-11-23T15:44:55.534Z,12.76
2022-11-23T15:47:23.809Z,13.42
2022-11-23T15:49:51.590Z,14.43
2022-11-23T15:52:19.369Z,15.04
2022-11-23T15:54:48.410Z,16.07
2022-11-23T15:57:16.242Z,16.43
2022-11-23T15:59:44.025Z,17.91
2022-11-23T16:02:11.798Z,18.65
2022-11-23T16:04:39.920Z,19.28
2022-11-23T16:07:09.653Z,19.94
2022-11-23T16:09:53.554Z,20.64
2022-11-23T16:12:21.877Z,21.98
2022-11-23T16:14:49.743Z,21.97
2022-11-23T16:17:17.758Z,22.81
2022-11-23T16:19:45.687Z,23.58
2022-11-23T16:22:13.467Z,23.81
2022-11-23T16:24:41.519Z,25.03
2022-11-23T16:27:09.401Z,25.94
2022-11-23T16:29:37.547Z,26.06
2022-11-23T16:32:07.118Z,26.56
2022-11-23T16:34:35.391Z,26.84
2022-11-23T16:37:03.911Z,27.23
2022-11-23T16:39:31.735Z,27.68
2022-11-23T16:41:59.477Z,28.56
2022-11-23T16:44:27.294Z,28.94
2022-11-23T16:46:55.065Z,28.62
2022-11-23T16:49:22.937Z,28.50
2022-11-23T16:51:56.458Z,28.66
2022-11-23T16:54:25.655Z,28.47
2022-11-23T16:56:53.592Z,28.86
2022-11-23T16:59:22.879Z,29.01
2022-11-23T17:01:56.665Z,29.33
2022-11-23T17:04:25.043Z,28.87
2022-11-23T17:06:52.901Z,24.89
2022-11-23T17:09:20.657Z,19.89
2022-11-23T17:11:50.246Z,16.04
2022-11-23T17:14:30.019Z,13.51
2022-11-23T17:17:00.161Z,12.19
2022-11-23T17:19:27.994Z,11.20
2022-11-23T17:21:55.758Z,10.79
2022-11-23T17:24:23.551Z,10.53
2022-11-23T17:26:52.783Z,10.80
2022-11-23T17:29:20.601Z,11.42
2022-11-23T17:31:48.436Z,11.93
2022-11-23T17:34:16.264Z,12.64
2022-11-23T17:36:44.064Z,13.55
2022-11-23T17:39:11.828Z,14.18
2022-11-23T17:41:39.625Z,15.49
2022-11-23T17:44:07.608Z,16.10
2022-11-23T17:46:35.397Z,17.10
2022-11-23T17:49:03.556Z,17.83
2022-11-23T17:51:31.292Z,18.73
2022-11-23T17:53:59.107Z,19.57
2022-11-23T17:56:26.950Z,20.54
2022-11-23T17:58:54.732Z,20.89
2022-11-23T18:01:22.743Z,21.59
2022-11-23T18:03:50.795Z,22.17
2022-11-23T18:06:18.669Z,23.33
2022-11-23T18:08:46.516Z,23.58
2022-11-23T18:11:14.305Z,24.12
2022-11-23T18:13:42.383Z,24.73
2022-11-23T18:16:10.303Z,25.28
2022-11-23T18:18:38.389Z,25.81
2022-11-23T18:21:06.181Z,26.65
2022-11-23T18:23:34.130Z,27.03
2022-11-23T18:26:01.927Z,27.06
2022-11-23T18:28:29.762Z,27.78
2022-11-23T18:30:57.591Z,28.22
2022-11-23T18:33:25.438Z,28.24
2022-11-23T18:35:53.278Z,28.61
2022-11-23T18:38:21.065Z,28.59
2022-11-23T18:40:48.828Z,28.22
2022-11-23T18:43:16.639Z,28.55
2022-11-23T18:45:44.407Z,28.83
2022-11-23T18:48:13.491Z,29.28
2022-11-23T18:50:41.331Z,28.95
2022-11-23T18:53:09.068Z,29.49
2022-11-23T18:55:36.845Z,29.54
2022-11-23T18:58:04.591Z,29.56
2022-11-23T19:00:32.575Z,29.50
2022-11-23T19:03:00.478Z,29.73
2022-11-23T19:05:28.294Z,28.01
2022-11-23T19:07:57.507Z,21.15
2022-11-23T19:10:25.339Z,16.69
2022-11-23T19:12:53.103Z,13.81
2022-11-23T19:15:21.035Z,12.10
2022-11-23T19:17:49.389Z,11.35
2022-11-23T19:20:18.661Z,10.41
2022-11-23T19:22:46.442Z,10.21
2022-11-23T19:25:14.276Z,10.51
2022-11-23T19:27:42.054Z,10.96
2022-11-23T19:30:10.086Z,11.50
2022-11-23T19:32:37.917Z,12.05
2022-11-23T19:35:05.796Z,13.11
2022-11-23T19:37:33.613Z,13.75
2022-11-23T19:40:01.402Z,14.48
2022-11-23T19:42:29.200Z,15.40
2022-11-23T19:44:57.081Z,16.55
2022-11-23T19:47:24.978Z,17.57
2022-11-23T19:49:52.811Z,18.35
2022-11-23T19:52:20.617Z,19.16
2022-11-23T19:54:48.453Z,19.60
2022-11-23T19:57:16.207Z,20.69
2022-11-23T19:59:43.968Z,20.89
2022-11-23T20:02:11.925Z,21.46
2022-11-23T20:04:39.850Z,22.15
2022-11-23T20:07:07.681Z,23.28
2022-11-23T20:09:36.012Z,24.13
2022-11-23T20:12:03.894Z,24.21
2022-11-23T20:14:31.654Z,25.01
2022-11-23T20:16:59.522Z,25.24
2022-11-23T20:19:27.348Z,26.48
2022-11-23T20:21:55.172Z,26.47
2022-11-23T20:24:22.938Z,26.85
2022-11-23T20:26:51.121Z,27.48
2022-11-23T20:29:18.988Z,27.68
2022-11-23T20:31:47.096Z,28.25
2022-11-23T20:34:20.001Z,28.25
2022-11-23T20:36:49.095Z,27.92
2022-11-23T20:39:17.181Z,28.47
2022-11-23T20:41:45.178Z,28.41
2022-11-23T20:44:13.225Z,28.31
2022-11-23T20:49:30.123Z,28.85
2022-11-23T20:51:58.314Z,29.10
2022-11-23T20:54:26.145Z,29.82
2022-11-23T20:56:54.068Z,29.69
2022-11-23T20:59:23.865Z,29.53
2022-11-23T21:01:51.963Z,30.06
2022-11-23T21:04:19.796Z,30.61
2022-11-23T21:06:47.813Z,30.48
2022-11-23T21:09:17.102Z,30.86
2022-11-23T21:12:02.711Z,31.06
2022-11-23T21:14:31.718Z,31.16
2022-11-23T21:17:00.149Z,31.39
2022-11-23T21:19:27.928Z,31.79
2022-11-23T21:21:55.715Z,31.84
2022-11-23T21:24:23.709Z,31.95
2022-11-23T21:26:52.066Z,32.17
2022-11-23T21:29:19.935Z,32.77
2022-11-23T21:31:47.743Z,32.61
2022-11-23T21:34:17.661Z,32.72
2022-11-23T21:36:45.735Z,32.98
2022-11-23T21:39:13.593Z,33.22
2022-11-23T21:41:41.558Z,33.51
2022-11-23T21:44:09.582Z,33.54
2022-11-23T21:46:37.575Z,33.43
2022-11-23T21:49:06.643Z,33.68
2022-11-23T21:51:34.794Z,33.51
2022-11-23T21:54:02.755Z,33.44
2022-11-23T21:56:30.814Z,33.66
2022-11-23T21:58:59.117Z,33.44
2022-11-23T22:01:28.041Z,33.74
2022-11-23T22:03:56.084Z,33.44
2022-11-23T22:06:23.990Z,33.68
2022-11-23T22:08:52.107Z,33.49
2022-11-23T22:11:20.131Z,33.77
2022-11-23T22:13:48.173Z,33.29
2022-11-23T22:16:16.311Z,33.81
2022-11-23T22:18:44.329Z,33.67
2022-11-23T22:21:12.416Z,34.05
2022-11-23T22:23:40.340Z,33.92
2022-11-23T22:26:08.610Z,34.00
2022-11-23T22:28:36.640Z,34.26
2022-11-23T22:31:04.578Z,33.64
2022-11-23T22:33:32.501Z,34.21
2022-11-23T22:36:00.701Z,33.84
2022-11-23T22:38:28.869Z,34.23
2022-11-23T22:40:56.916Z,34.31
2022-11-23T22:43:25.092Z,34.17
2022-11-23T22:45:53.200Z,34.37
2022-11-23T22:48:21.341Z,33.95
2022-11-23T22:50:49.786Z,34.37
2022-11-23T22:53:18.074Z,34.16
2022-11-23T22:55:45.971Z,33.92
2022-11-23T22:58:13.877Z,34.04
2022-11-23T23:00:41.746Z,33.95
2022-11-23T23:03:09.688Z,33.94
2022-11-23T23:05:37.699Z,33.85
2022-11-23T23:08:05.839Z,34.42
2022-11-23T23:10:34.015Z,34.26
2022-11-23T23:13:02.148Z,34.06
2022-11-23T23:15:30.035Z,34.30
2022-11-23T23:17:57.955Z,34.39
2022-11-23T23:20:25.976Z,34.47
2022-11-23T23:22:53.923Z,34.62
2022-11-23T23:25:21.989Z,34.61
2022-11-23T23:27:49.957Z,34.49
2022-11-23T23:30:18.433Z,35.15
2022-11-23T23:32:46.659Z,34.64
2022-11-23T23:35:14.578Z,35.21
2022-11-23T23:37:42.483Z,34.86
2022-11-23T23:40:10.444Z,34.76
2022-11-23T23:42:38.413Z,34.79
2022-11-23T23:45:06.358Z,34.96
2022-11-23T23:47:34.249Z,35.20
2022-11-23T23:50:02.290Z,34.77
2022-11-23T23:52:30.234Z,35.15
2022-11-23T23:54:58.132Z,35.22
2022-11-23T23:57:26.129Z,35.09
2022-11-23T23:59:54.129Z,34.64
